Time;durP1;ratioP1;P1;durP2;ratioP2;P2;SDS_P1;SDS_P2;PMS_P1;PMS_P2;Temp;Humidity;BMP_temperature;BMP_pressure;BME280_temperature;BME280_humidity;BME280_pressure;Samples;Min_cycle;Max_cycle;Signal;HPM_P1;HPM_P2
2023/04/09 00:00:04;;;;;;;43.67;28.47;;;;;;;;;;5097754;28;20195;-86
2023/04/09 00:02:30;;;;;;;37.45;25.50;;;;;;;;;;5099745;28;20448;-87
2023/04/09 00:04:56;;;;;;;41.45;30.48;;;;;;;;;;5118451;28;20235;-85
2023/04/09 00:07:22;;;;;;;39.28;28.88;;;;;;;;;;5082370;28;20176;-86
2023/04/09 00:09:48;;;;;;;39.63;27.10;;;;;;;;;;5082360;28;20203;-86
2023/04/09 00:12:14;;;;;;;39.77;28.77;;;;;;;;;;5099330;28;20428;-85
2023/04/09 00:14:40;;;;;;;43.60;29.48;;;;;;;;;;5098737;28;20499;-85
2023/04/09 00:17:06;;;;;;;41.60;27.42;;;;;;;;;;5080884;28;20225;-85
2023/04/09 00:19:32;;;;;;;38.60;26.70;;;;;;;;;;5098584;28;20175;-86
2023/04/09 00:21:58;;;;;;;40.40;27.37;;;;;;;;;;5099082;28;20417;-82
2023/04/09 00:24:24;;;;;;;38.13;27.00;;;;;;;;;;5100175;28;20466;-82
2023/04/09 00:26:52;;;;;;;39.92;28.98;;;;;;;;;;5082947;28;20413;-82
2023/04/09 00:29:18;;;;;;;39.25;28.92;;;;;;;;;;5083400;28;20175;-81
2023/04/09 00:31:44;;;;;;;42.55;28.15;;;;;;;;;;5100020;28;20267;-82
2023/04/09 00:34:10;;;;;;;37.53;26.60;;;;;;;;;;5083235;28;20618;-82
2023/04/09 00:36:36;;;;;;;46.28;28.02;;;;;;;;;;5082901;28;20425;-82
2023/04/09 00:39:02;;;;;;;40.70;27.17;;;;;;;;;;5099420;28;20240;-83
2023/04/09 00:41:28;;;;;;;43.30;28.40;;;;;;;;;;5118128;28;20413;-81
2023/04/09 00:43:56;;;;;;;39.60;27.83;;;;;;;;;;5100332;28;20436;-81
2023/04/09 00:46:22;;;;;;;39.25;26.10;;;;;;;;;;5100194;28;20447;-83
2023/04/09 00:48:48;;;;;;;39.03;26.60;;;;;;;;;;5099256;28;20623;-83
2023/04/09 00:51:14;;;;;;;39.87;26.80;;;;;;;;;;5117561;28;20488;-82
2023/04/09 00:53:40;;;;;;;41.08;26.98;;;;;;;;;;5083100;28;20445;-82
2023/04/09 00:56:06;;;;;;;37.45;26.23;;;;;;;;;;5099303;28;20250;-82
2023/04/09 00:58:32;;;;;;;37.55;27.30;;;;;;;;;;5099291;28;20276;-80
2023/04/09 01:00:58;;;;;;;37.25;25.77;;;;;;;;;;5098977;28;20555;-81
2023/04/09 01:03:24;;;;;;;37.63;26.25;;;;;;;;;;5099710;28;20600;-81
2023/04/09 01:06:03;;;;;;;37.67;27.02;;;;;;;;;;5117066;28;20250;-81
2023/04/09 01:08:48;;;;;;;39.15;26.60;;;;;;;;;;5117330;28;20174;-81
2023/04/09 01:11:30;;;;;;;39.00;25.50;;;;;;;;;;5117422;28;20246;-81
2023/04/09 01:14:13;;;;;;;41.83;27.75;;;;;;;;;;5117197;28;20179;-81
2023/04/09 01:16:42;;;;;;;42.15;28.15;;;;;;;;;;5099600;28;20177;-81
2023/04/09 01:19:27;;;;;;;43.22;28.52;;;;;;;;;;5098840;28;20175;-81
2023/04/09 01:21:54;;;;;;;39.08;28.23;;;;;;;;;;5098829;28;20642;-81
2023/04/09 01:24:41;;;;;;;41.10;27.90;;;;;;;;;;5098616;28;20206;-81
2023/04/09 01:27:08;;;;;;;45.33;28.83;;;;;;;;;;5115949;28;20510;-81
2023/04/09 01:29:36;;;;;;;42.95;29.42;;;;;;;;;;5117428;28;20167;-81
2023/04/09 01:32:02;;;;;;;40.60;28.80;;;;;;;;;;5098565;28;20531;-81
2023/04/09 01:34:30;;;;;;;42.58;29.02;;;;;;;;;;5116670;28;20179;-81
2023/04/09 01:36:57;;;;;;;39.72;27.50;;;;;;;;;;5116618;28;20519;-81
2023/04/09 01:39:23;;;;;;;41.47;27.95;;;;;;;;;;5098093;28;20167;-80
2023/04/09 01:41:50;;;;;;;47.30;26.80;;;;;;;;;;5098343;28;20216;-82
2023/04/09 01:44:17;;;;;;;37.50;27.45;;;;;;;;;;5098513;28;20207;-81
2023/04/09 01:46:43;;;;;;;44.83;27.42;;;;;;;;;;5098836;28;20633;-81
2023/04/09 01:49:09;;;;;;;45.10;28.77;;;;;;;;;;5116643;28;20182;-81
2023/04/09 01:51:36;;;;;;;39.88;27.00;;;;;;;;;;5098087;28;20209;-81
2023/04/09 01:54:02;;;;;;;40.28;26.52;;;;;;;;;;5116435;28;20273;-80
2023/04/09 01:56:28;;;;;;;36.95;27.60;;;;;;;;;;5116685;28;20222;-81
2023/04/09 01:58:54;;;;;;;38.47;27.45;;;;;;;;;;5116241;28;20169;-81
2023/04/09 02:01:23;;;;;;;43.90;28.92;;;;;;;;;;5098699;28;20182;-82
2023/04/09 02:03:54;;;;;;;44.30;29.35;;;;;;;;;;5116425;28;20304;-82
2023/04/09 02:06:26;;;;;;;45.00;29.38;;;;;;;;;;5116713;28;20179;-82
2023/04/09 02:08:52;;;;;;;41.28;28.08;;;;;;;;;;5116539;28;20544;-83
2023/04/09 02:11:20;;;;;;;43.25;29.05;;;;;;;;;;5097892;28;20187;-82
2023/04/09 02:13:47;;;;;;;39.42;27.83;;;;;;;;;;5098241;28;20178;-82
2023/04/09 02:16:15;;;;;;;42.45;27.38;;;;;;;;;;5097862;28;20175;-82
2023/04/09 02:18:41;;;;;;;40.80;27.33;;;;;;;;;;5116457;28;20200;-82
2023/04/09 02:21:07;;;;;;;42.83;27.45;;;;;;;;;;5098397;28;20176;-81
2023/04/09 02:23:33;;;;;;;40.60;26.60;;;;;;;;;;5098669;28;20175;-81
2023/04/09 02:25:59;;;;;;;40.72;26.73;;;;;;;;;;5116494;28;20509;-81
2023/04/09 02:28:25;;;;;;;37.57;26.50;;;;;;;;;;5116581;28;20167;-81
2023/04/09 02:30:51;;;;;;;39.47;28.40;;;;;;;;;;5098106;28;20424;-82
2023/04/09 02:33:17;;;;;;;40.55;30.05;;;;;;;;;;5116146;28;20412;-81
2023/04/09 02:35:43;;;;;;;39.73;27.63;;;;;;;;;;5098376;28;20182;-81
2023/04/09 02:38:12;;;;;;;42.23;29.43;;;;;;;;;;5101362;28;20891;-81
2023/04/09 02:40:39;;;;;;;43.20;29.38;;;;;;;;;;5102390;28;20421;-81
2023/04/09 02:43:05;;;;;;;45.38;30.13;;;;;;;;;;5119823;28;20631;-81
2023/04/09 02:45:30;;;;;;;43.50;29.47;;;;;;;;;;5102566;28;20209;-82
2023/04/09 02:47:56;;;;;;;41.50;28.77;;;;;;;;;;5085147;28;20436;-81
2023/04/09 02:50:22;;;;;;;40.23;27.60;;;;;;;;;;5102249;28;20885;-81
2023/04/09 02:52:48;;;;;;;46.37;29.30;;;;;;;;;;5120633;28;20748;-80
2023/04/09 02:55:14;;;;;;;38.87;27.40;;;;;;;;;;5120340;28;20408;-81
2023/04/09 02:57:40;;;;;;;42.58;29.95;;;;;;;;;;5101668;28;20428;-81
2023/04/09 03:00:07;;;;;;;47.17;30.45;;;;;;;;;;5101137;28;20176;-82
2023/04/09 03:02:33;;;;;;;41.25;28.88;;;;;;;;;;5119694;28;20598;-81
2023/04/09 03:04:59;;;;;;;44.40;28.63;;;;;;;;;;5120265;28;20223;-81
2023/04/09 03:07:25;;;;;;;40.17;27.70;;;;;;;;;;5119892;28;20409;-81
2023/04/09 03:09:51;;;;;;;39.70;28.83;;;;;;;;;;5101858;28;20405;-80
2023/04/09 03:12:17;;;;;;;40.07;27.87;;;;;;;;;;5101659;28;20429;-80
2023/04/09 03:14:42;;;;;;;46.87;28.80;;;;;;;;;;5119715;28;20488;-81
2023/04/09 03:17:08;;;;;;;41.07;27.80;;;;;;;;;;5084684;28;20421;-81
2023/04/09 03:19:35;;;;;;;48.47;29.10;;;;;;;;;;5101199;28;20408;-80
2023/04/09 03:22:00;;;;;;;41.85;28.88;;;;;;;;;;5119641;28;20397;-81
2023/04/09 03:24:26;;;;;;;50.78;29.45;;;;;;;;;;5101798;28;20581;-81
2023/04/09 03:26:52;;;;;;;40.37;28.00;;;;;;;;;;5101531;28;20175;-80
2023/04/09 03:29:18;;;;;;;49.23;30.97;;;;;;;;;;5100615;28;20414;-81
2023/04/09 03:31:44;;;;;;;48.83;31.90;;;;;;;;;;5084171;28;20422;-80
2023/04/09 03:34:10;;;;;;;42.80;27.97;;;;;;;;;;5084275;28;20654;-80
2023/04/09 03:36:36;;;;;;;39.37;26.27;;;;;;;;;;5101874;28;20480;-80
2023/04/09 03:39:02;;;;;;;37.40;24.70;;;;;;;;;;5119879;28;20413;-80
2023/04/09 03:41:28;;;;;;;36.93;25.40;;;;;;;;;;5119329;28;20432;-80
2023/04/09 03:43:54;;;;;;;32.85;24.25;;;;;;;;;;5101300;28;20811;-80
2023/04/09 03:46:20;;;;;;;39.70;24.40;;;;;;;;;;5101143;28;20215;-79
2023/04/09 03:48:46;;;;;;;34.25;24.45;;;;;;;;;;5100423;28;20531;-80
2023/04/09 03:51:13;;;;;;;35.58;24.42;;;;;;;;;;5101687;28;20198;-80
2023/04/09 03:53:40;;;;;;;32.28;21.80;;;;;;;;;;5084268;28;20229;-80
2023/04/09 03:56:06;;;;;;;34.65;23.08;;;;;;;;;;5119408;28;20205;-80
2023/04/09 03:58:32;;;;;;;40.72;24.35;;;;;;;;;;5119616;28;20180;-80
2023/04/09 04:00:58;;;;;;;32.92;23.95;;;;;;;;;;5101550;28;20175;-81
2023/04/09 04:03:24;;;;;;;37.90;23.85;;;;;;;;;;5100795;28;20669;-80
2023/04/09 04:05:51;;;;;;;41.45;26.70;;;;;;;;;;5119769;28;20543;-80
2023/04/09 04:08:16;;;;;;;39.25;25.20;;;;;;;;;;5118809;28;20172;-79
2023/04/09 04:10:42;;;;;;;34.33;24.70;;;;;;;;;;5084034;28;20179;-79
2023/04/09 04:13:08;;;;;;;34.73;24.47;;;;;;;;;;5100498;28;20423;-80
2023/04/09 04:15:41;;;;;;;44.27;28.60;;;;;;;;;;5119266;28;20889;-79
2023/04/09 04:18:07;;;;;;;42.55;28.33;;;;;;;;;;5100954;28;20913;-80
2023/04/09 04:20:33;;;;;;;42.75;28.15;;;;;;;;;;5119309;28;20531;-80
2023/04/09 04:22:59;;;;;;;49.72;30.98;;;;;;;;;;5100720;28;20179;-81
2023/04/09 04:25:25;;;;;;;49.47;29.90;;;;;;;;;;5100698;28;20259;-80
2023/04/09 04:27:53;;;;;;;46.40;28.42;;;;;;;;;;5101022;28;20182;-80
2023/04/09 04:30:19;;;;;;;41.20;28.23;;;;;;;;;;5119001;28;20171;-80
2023/04/09 04:32:45;;;;;;;40.33;28.33;;;;;;;;;;5084131;28;20658;-81
2023/04/09 04:35:10;;;;;;;46.30;29.40;;;;;;;;;;5100565;28;20187;-80
2023/04/09 04:37:37;;;;;;;44.37;29.40;;;;;;;;;;5101039;28;20950;-80
2023/04/09 04:40:04;;;;;;;40.28;25.83;;;;;;;;;;5118266;28;20401;-80
2023/04/09 04:42:30;;;;;;;45.72;28.30;;;;;;;;;;5100772;28;20179;-80
2023/04/09 04:44:56;;;;;;;45.80;30.77;;;;;;;;;;5083022;28;20282;-80
2023/04/09 04:47:22;;;;;;;48.77;31.27;;;;;;;;;;5118649;28;20569;-81
2023/04/09 04:49:48;;;;;;;44.53;27.77;;;;;;;;;;5083417;28;20433;-80
2023/04/09 04:52:14;;;;;;;48.20;29.30;;;;;;;;;;5118047;28;20440;-81
2023/04/09 04:54:40;;;;;;;43.75;27.88;;;;;;;;;;5100628;28;20420;-80
2023/04/09 04:57:06;;;;;;;49.45;30.13;;;;;;;;;;5117827;28;20183;-81
2023/04/09 04:59:32;;;;;;;43.70;30.13;;;;;;;;;;5118391;28;20207;-80
2023/04/09 05:01:58;;;;;;;44.53;29.23;;;;;;;;;;5118352;28;20438;-80
2023/04/09 05:04:24;;;;;;;50.30;29.70;;;;;;;;;;5117698;28;20238;-80
2023/04/09 05:06:50;;;;;;;47.60;29.73;;;;;;;;;;5083353;28;20424;-80
2023/04/09 05:09:16;;;;;;;39.67;28.88;;;;;;;;;;5100047;28;20872;-82
2023/04/09 05:11:42;;;;;;;40.83;28.23;;;;;;;;;;5099941;28;20183;-80
2023/04/09 05:14:08;;;;;;;43.50;29.20;;;;;;;;;;5099804;28;20759;-81
2023/04/09 05:16:34;;;;;;;47.50;30.92;;;;;;;;;;5100236;28;20905;-81
2023/04/09 05:18:59;;;;;;;64.70;32.33;;;;;;;;;;5100524;28;20182;-80
2023/04/09 05:21:26;;;;;;;72.57;33.33;;;;;;;;;;5117308;28;20423;-80
2023/04/09 05:23:53;;;;;;;85.88;34.13;;;;;;;;;;5118387;28;20174;-80
2023/04/09 05:26:20;;;;;;;47.55;32.05;;;;;;;;;;5098643;28;20237;-80
2023/04/09 05:28:46;;;;;;;53.83;31.60;;;;;;;;;;5099917;28;20171;-80
2023/04/09 05:31:14;;;;;;;57.83;32.15;;;;;;;;;;5099229;28;20175;-80
2023/04/09 05:33:40;;;;;;;141.20;37.15;;;;;;;;;;5118027;28;20555;-80
2023/04/09 05:36:06;;;;;;;65.50;31.73;;;;;;;;;;5098710;28;20183;-80
2023/04/09 05:38:32;;;;;;;54.08;31.88;;;;;;;;;;5117219;28;20175;-80
2023/04/09 05:40:59;;;;;;;46.88;29.52;;;;;;;;;;5117734;28;20582;-80
2023/04/09 05:43:25;;;;;;;48.55;31.30;;;;;;;;;;5099267;28;20179;-80
2023/04/09 05:45:51;;;;;;;70.90;32.92;;;;;;;;;;5098844;28;20215;-80
2023/04/09 05:48:18;;;;;;;55.95;32.47;;;;;;;;;;5099292;28;20235;-80
2023/04/09 05:50:51;;;;;;;258.90;44.17;;;;;;;;;;5117691;28;20182;-80
2023/04/09 05:53:18;;;;;;;69.78;31.25;;;;;;;;;;5117397;28;20532;-80
2023/04/09 05:55:44;;;;;;;48.05;30.23;;;;;;;;;;5082986;28;20178;-80
2023/04/09 05:58:11;;;;;;;51.10;30.38;;;;;;;;;;5117681;28;20168;-81
2023/04/09 06:00:37;;;;;;;44.60;29.73;;;;;;;;;;5099245;28;20194;-79
2023/04/09 06:03:03;;;;;;;51.83;30.50;;;;;;;;;;5099338;28;20179;-78
2023/04/09 06:05:29;;;;;;;50.40;31.33;;;;;;;;;;5098732;28;20480;-78
2023/04/09 06:07:55;;;;;;;40.00;28.55;;;;;;;;;;5099046;28;20569;-78
2023/04/09 06:10:21;;;;;;;39.70;27.75;;;;;;;;;;5098708;28;20193;-79
2023/04/09 06:12:47;;;;;;;47.70;28.33;;;;;;;;;;5081998;28;20180;-79
2023/04/09 06:15:13;;;;;;;50.90;30.70;;;;;;;;;;5098678;28;20189;-79
2023/04/09 06:17:39;;;;;;;41.53;28.83;;;;;;;;;;5117194;28;20405;-79
2023/04/09 06:20:05;;;;;;;46.22;29.17;;;;;;;;;;5116972;28;20216;-83
2023/04/09 06:22:31;;;;;;;44.33;28.52;;;;;;;;;;5097894;28;20766;-79
2023/04/09 06:24:57;;;;;;;49.67;30.67;;;;;;;;;;5116635;28;20207;-79
2023/04/09 06:27:23;;;;;;;43.30;28.10;;;;;;;;;;5116682;28;20213;-78
2023/04/09 06:29:49;;;;;;;44.25;31.15;;;;;;;;;;5116668;28;20915;-79
2023/04/09 06:32:16;;;;;;;38.27;27.30;;;;;;;;;;5116462;28;20234;-79
2023/04/09 06:34:42;;;;;;;47.30;31.25;;;;;;;;;;5116647;28;20522;-79
2023/04/09 06:37:08;;;;;;;48.47;30.67;;;;;;;;;;5081449;28;20210;-79
2023/04/09 06:39:34;;;;;;;49.03;31.40;;;;;;;;;;5117101;28;20768;-79
2023/04/09 06:42:00;;;;;;;52.40;31.52;;;;;;;;;;5098982;28;20411;-79
2023/04/09 06:44:26;;;;;;;48.05;32.35;;;;;;;;;;5117097;28;20212;-79
2023/04/09 06:46:52;;;;;;;53.20;33.92;;;;;;;;;;5081398;28;20176;-80
2023/04/09 06:49:18;;;;;;;48.13;33.25;;;;;;;;;;5098532;28;20195;-80
2023/04/09 06:51:44;;;;;;;46.97;31.42;;;;;;;;;;5116660;28;20581;-80
2023/04/09 06:54:10;;;;;;;44.20;29.20;;;;;;;;;;5098118;28;20259;-80
2023/04/09 06:56:36;;;;;;;45.80;30.73;;;;;;;;;;5097921;28;20420;-79
2023/04/09 06:59:02;;;;;;;47.10;31.50;;;;;;;;;;5098720;28;20401;-80
2023/04/09 07:01:28;;;;;;;50.03;34.47;;;;;;;;;;5081208;28;20418;-79
2023/04/09 07:03:54;;;;;;;48.30;31.80;;;;;;;;;;5097968;28;20231;-80
2023/04/09 07:06:20;;;;;;;52.72;34.70;;;;;;;;;;5098152;28;20472;-80
2023/04/09 07:08:46;;;;;;;52.97;35.50;;;;;;;;;;5116430;28;20178;-80
2023/04/09 07:11:12;;;;;;;52.33;34.63;;;;;;;;;;5116176;28;20171;-81
2023/04/09 07:13:38;;;;;;;57.27;34.70;;;;;;;;;;5116261;28;20172;-80
2023/04/09 07:16:04;;;;;;;49.77;33.10;;;;;;;;;;5098129;28;20413;-80
2023/04/09 07:18:30;;;;;;;49.88;31.02;;;;;;;;;;5098030;28;20420;-80
2023/04/09 07:20:56;;;;;;;50.20;32.33;;;;;;;;;;5098405;28;20186;-80
2023/04/09 07:23:22;;;;;;;47.43;31.17;;;;;;;;;;5116240;28;20417;-80
2023/04/09 07:25:48;;;;;;;44.13;28.35;;;;;;;;;;5101803;28;20471;-80
2023/04/09 07:28:14;;;;;;;45.58;28.00;;;;;;;;;;5084281;28;20178;-81
2023/04/09 07:30:41;;;;;;;49.92;30.70;;;;;;;;;;5084796;28;20522;-80
2023/04/09 07:33:06;;;;;;;43.42;28.63;;;;;;;;;;5101810;28;20629;-81
2023/04/09 07:35:33;;;;;;;40.33;24.47;;;;;;;;;;5120172;28;20278;-81
2023/04/09 07:37:59;;;;;;;41.97;25.52;;;;;;;;;;5120045;28;20723;-80
2023/04/09 07:40:25;;;;;;;37.60;24.75;;;;;;;;;;5101716;28;20274;-81
2023/04/09 07:42:52;;;;;;;39.17;23.02;;;;;;;;;;5119540;28;20186;-81
2023/04/09 07:45:19;;;;;;;34.42;23.60;;;;;;;;;;5101000;28;20200;-82
2023/04/09 07:47:45;;;;;;;35.38;21.52;;;;;;;;;;5101586;28;20179;-81
2023/04/09 07:50:11;;;;;;;31.45;21.20;;;;;;;;;;5101525;28;20190;-87
2023/04/09 07:52:37;;;;;;;29.75;21.60;;;;;;;;;;5102026;28;20171;-81
2023/04/09 07:55:03;;;;;;;32.30;21.55;;;;;;;;;;5085024;28;20191;-81
2023/04/09 07:57:32;;;;;;;31.63;20.95;;;;;;;;;;5119621;28;20176;-81
2023/04/09 07:59:58;;;;;;;30.35;20.13;;;;;;;;;;5119534;28;20638;-81
2023/04/09 08:02:25;;;;;;;33.07;21.03;;;;;;;;;;5119118;28;20172;-81
2023/04/09 08:04:51;;;;;;;29.45;19.58;;;;;;;;;;5119297;28;20971;-81
2023/04/09 08:07:17;;;;;;;26.40;18.97;;;;;;;;;;5100927;28;20171;-81
2023/04/09 08:09:43;;;;;;;23.60;17.00;;;;;;;;;;5101277;28;20412;-81
2023/04/09 08:12:09;;;;;;;19.10;14.85;;;;;;;;;;5101200;28;20858;-81
2023/04/09 08:14:35;;;;;;;20.38;13.98;;;;;;;;;;5083727;28;20194;-81
2023/04/09 08:18:43;;;;;;;21.38;13.30;;;;;;;;;;5093211;28;20896;-81
2023/04/09 08:21:09;;;;;;;15.38;11.55;;;;;;;;;;5092276;28;20187;-84
2023/04/09 08:23:36;;;;;;;13.80;10.93;;;;;;;;;;5091581;28;20172;-84
2023/04/09 08:26:03;;;;;;;16.80;11.88;;;;;;;;;;5093127;28;20515;-84
2023/04/09 08:28:30;;;;;;;13.75;10.27;;;;;;;;;;5074947;28;20184;-84
2023/04/09 08:30:56;;;;;;;12.15;9.80;;;;;;;;;;5091027;28;20692;-84
2023/04/09 08:33:22;;;;;;;14.83;10.13;;;;;;;;;;5073689;28;20184;-84
2023/04/09 08:35:48;;;;;;;9.75;7.50;;;;;;;;;;5090151;28;20414;-84
2023/04/09 08:38:14;;;;;;;11.10;7.77;;;;;;;;;;5073432;28;20237;-85
2023/04/09 08:40:40;;;;;;;12.73;8.93;;;;;;;;;;5090281;28;20778;-84
2023/04/09 08:43:07;;;;;;;8.60;7.73;;;;;;;;;;5090215;28;20884;-84
2023/04/09 08:45:33;;;;;;;9.50;7.90;;;;;;;;;;5090069;28;20769;-84
2023/04/09 08:48:02;;;;;;;8.70;7.10;;;;;;;;;;5090087;28;20405;-84
2023/04/09 08:50:28;;;;;;;9.30;7.47;;;;;;;;;;5072741;28;20880;-85
2023/04/09 08:52:54;;;;;;;10.20;8.60;;;;;;;;;;5089304;28;20913;-83
2023/04/09 08:55:20;;;;;;;8.93;7.67;;;;;;;;;;5091213;28;20472;-84
2023/04/09 08:57:46;;;;;;;8.37;6.67;;;;;;;;;;5090175;28;20456;-84
2023/04/09 09:00:12;;;;;;;6.70;6.00;;;;;;;;;;5090204;28;20861;-85
2023/04/09 09:02:38;;;;;;;6.97;5.43;;;;;;;;;;5089702;28;20381;-85
2023/04/09 09:05:05;;;;;;;7.03;6.10;;;;;;;;;;5089269;28;20493;-84
2023/04/09 09:07:33;;;;;;;7.40;5.90;;;;;;;;;;5089660;28;20454;-83
2023/04/09 09:10:01;;;;;;;6.50;5.80;;;;;;;;;;5089874;28;20453;-83
2023/04/09 09:12:42;;;;;;;6.87;5.87;;;;;;;;;;5089478;28;20397;-84
2023/04/09 09:15:26;;;;;;;8.10;6.13;;;;;;;;;;5089534;28;20393;-83
2023/04/09 09:17:55;;;;;;;6.73;5.50;;;;;;;;;;5090361;28;20454;-84
2023/04/09 09:20:22;;;;;;;7.03;5.77;;;;;;;;;;5088991;28;20439;-81
2023/04/09 09:22:49;;;;;;;6.47;5.60;;;;;;;;;;5089377;28;20411;-83
2023/04/09 09:25:15;;;;;;;6.60;5.87;;;;;;;;;;5089197;28;20437;-85
2023/04/09 09:27:42;;;;;;;8.63;7.13;;;;;;;;;;5090564;28;20449;-85
2023/04/09 09:30:09;;;;;;;5.47;4.90;;;;;;;;;;5059184;28;20423;-86
2023/04/09 09:32:35;;;;;;;7.20;6.07;;;;;;;;;;5075720;28;20411;-86
2023/04/09 09:35:02;;;;;;;8.00;5.80;;;;;;;;;;5076666;28;20395;-85
2023/04/09 09:37:29;;;;;;;7.30;6.60;;;;;;;;;;5076635;28;20779;-84
2023/04/09 09:39:56;;;;;;;5.93;5.23;;;;;;;;;;5075613;28;20423;-85
2023/04/09 09:42:22;;;;;;;8.40;7.17;;;;;;;;;;5076130;28;20431;-84
2023/04/09 09:44:48;;;;;;;6.40;5.80;;;;;;;;;;5076404;28;20896;-85
2023/04/09 09:47:14;;;;;;;5.80;5.13;;;;;;;;;;5076543;28;20470;-83
2023/04/09 09:49:40;;;;;;;8.97;5.37;;;;;;;;;;5075020;28;20423;-84
2023/04/09 09:52:08;;;;;;;5.37;4.80;;;;;;;;;;5075125;28;20405;-84
2023/04/09 09:54:41;;;;;;;6.40;5.70;;;;;;;;;;5076029;28;20468;-84
2023/04/09 09:57:13;;;;;;;6.17;5.57;;;;;;;;;;5075935;28;20399;-84
2023/04/09 09:59:41;;;;;;;5.80;5.20;;;;;;;;;;5074876;28;20409;-84
2023/04/09 10:02:12;;;;;;;6.40;5.77;;;;;;;;;;5075893;28;20414;-84
2023/04/09 10:04:38;;;;;;;6.37;5.30;;;;;;;;;;5074870;28;20844;-85
2023/04/09 10:07:05;;;;;;;5.80;5.30;;;;;;;;;;5074916;28;20437;-85
2023/04/09 10:09:32;;;;;;;6.07;5.47;;;;;;;;;;5057728;28;20427;-86
2023/04/09 10:11:59;;;;;;;6.97;5.40;;;;;;;;;;5075653;28;20411;-86
2023/04/09 10:14:27;;;;;;;5.60;5.00;;;;;;;;;;5075406;28;20407;-85
2023/04/09 10:16:53;;;;;;;7.03;5.40;;;;;;;;;;5075687;28;20480;-86
2023/04/09 10:19:21;;;;;;;5.93;5.33;;;;;;;;;;5074703;28;20402;-85
2023/04/09 10:21:47;;;;;;;5.97;5.23;;;;;;;;;;5057913;28;20426;-84
2023/04/09 10:24:14;;;;;;;6.03;4.77;;;;;;;;;;5075720;28;20407;-85
2023/04/09 10:26:41;;;;;;;5.27;4.77;;;;;;;;;;5075452;28;20437;-85
2023/04/09 10:29:12;;;;;;;6.10;5.50;;;;;;;;;;5074354;28;20997;-84
2023/04/09 10:31:46;;;;;;;6.30;5.70;;;;;;;;;;5075506;28;20465;-87
2023/04/09 10:34:14;;;;;;;5.63;5.03;;;;;;;;;;5075680;28;20759;-87
2023/04/09 10:36:42;;;;;;;7.10;6.03;;;;;;;;;;5074248;28;20390;-88
2023/04/09 10:39:14;;;;;;;6.00;5.40;;;;;;;;;;5076549;28;20374;-87
2023/04/09 10:41:41;;;;;;;6.10;5.47;;;;;;;;;;5074753;28;20366;-88
2023/04/09 10:44:19;;;;;;;5.63;5.03;;;;;;;;;;5076784;28;20435;-88
2023/04/09 10:46:45;;;;;;;5.73;5.17;;;;;;;;;;5074413;28;20449;-89
2023/04/09 10:49:15;;;;;;;5.33;4.80;;;;;;;;;;5074725;28;20827;-89
2023/04/09 10:51:41;;;;;;;6.87;5.40;;;;;;;;;;5074621;28;20849;-88
2023/04/09 10:54:26;;;;;;;5.83;5.23;;;;;;;;;;5074260;28;20438;-88
2023/04/09 10:57:07;;;;;;;5.40;4.90;;;;;;;;;;5075318;28;20399;-89
2023/04/09 10:59:40;;;;;;;6.37;4.83;;;;;;;;;;5082868;28;20399;-89
2023/04/09 11:02:07;;;;;;;7.40;5.43;;;;;;;;;;5076655;28;20417;-89
2023/04/09 11:04:38;;;;;;;5.27;4.77;;;;;;;;;;5076257;28;20723;-88
2023/04/09 11:07:06;;;;;;;6.77;5.50;;;;;;;;;;5076657;28;20432;-89
2023/04/09 11:09:35;;;;;;;5.87;5.27;;;;;;;;;;5075545;28;20479;-88
2023/04/09 11:12:02;;;;;;;6.07;5.47;;;;;;;;;;5074828;28;20403;-89
2023/04/09 11:14:28;;;;;;;5.50;4.73;;;;;;;;;;5074837;28;20492;-86
2023/04/09 11:16:54;;;;;;;6.73;5.60;;;;;;;;;;5074371;28;20442;-86
2023/04/09 11:19:20;;;;;;;6.30;5.80;;;;;;;;;;5073361;28;20419;-88
2023/04/09 11:21:47;;;;;;;5.17;4.40;;;;;;;;;;5074845;28;20408;-86
2023/04/09 11:24:14;;;;;;;7.00;6.10;;;;;;;;;;5074656;28;20810;-88
2023/04/09 11:26:40;;;;;;;5.80;5.27;;;;;;;;;;5075066;28;20477;-85
2023/04/09 11:29:09;;;;;;;6.83;5.43;;;;;;;;;;5073734;28;20386;-86
2023/04/09 11:31:35;;;;;;;5.83;5.17;;;;;;;;;;5074277;28;20388;-85
2023/04/09 11:34:01;;;;;;;6.80;6.10;;;;;;;;;;5073797;28;20377;-86
2023/04/09 11:36:28;;;;;;;5.10;4.60;;;;;;;;;;5073462;28;20749;-86
2023/04/09 11:38:58;;;;;;;4.53;4.13;;;;;;;;;;5074880;28;20378;-85
2023/04/09 11:41:37;;;;;;;5.87;4.87;;;;;;;;;;5073219;28;20461;-84
2023/04/09 11:44:03;;;;;;;5.57;4.70;;;;;;;;;;5074329;28;20757;-85
2023/04/09 11:46:32;;;;;;;5.53;5.00;;;;;;;;;;5072836;28;20378;-85
2023/04/09 11:48:59;;;;;;;5.40;4.90;;;;;;;;;;5072985;28;20909;-85
2023/04/09 11:51:26;;;;;;;5.17;4.67;;;;;;;;;;5072566;28;20377;-91
2023/04/09 11:53:52;;;;;;;6.20;5.20;;;;;;;;;;5074131;28;20408;-86
2023/04/09 11:56:21;;;;;;;7.13;6.43;;;;;;;;;;5074334;28;20399;-84
2023/04/09 11:58:47;;;;;;;5.90;5.37;;;;;;;;;;5074007;28;20374;-87
2023/04/09 12:01:14;;;;;;;5.77;4.93;;;;;;;;;;5073659;28;20443;-84
2023/04/09 12:03:41;;;;;;;5.83;5.23;;;;;;;;;;5074010;28;20374;-85
2023/04/09 12:06:08;;;;;;;6.00;5.40;;;;;;;;;;5072729;28;20452;-85
2023/04/09 12:08:35;;;;;;;6.13;5.53;;;;;;;;;;5074162;28;20828;-85
2023/04/09 12:11:08;;;;;;;6.50;5.60;;;;;;;;;;5075889;28;20410;-84
2023/04/09 12:13:34;;;;;;;5.93;5.33;;;;;;;;;;5073673;28;20407;-84
2023/04/09 12:16:02;;;;;;;5.23;4.73;;;;;;;;;;5073251;28;20818;-84
2023/04/09 12:18:28;;;;;;;5.43;4.93;;;;;;;;;;5073872;28;20478;-85
2023/04/09 12:20:54;;;;;;;6.83;5.57;;;;;;;;;;5072983;28;20441;-85
2023/04/09 12:23:20;;;;;;;6.10;5.50;;;;;;;;;;5072605;28;20484;-85
2023/04/09 12:25:46;;;;;;;6.13;5.57;;;;;;;;;;5072543;28;20436;-85
2023/04/09 12:28:16;;;;;;;5.77;5.17;;;;;;;;;;5072274;28;20921;-85
2023/04/09 12:30:43;;;;;;;4.80;4.40;;;;;;;;;;5071983;28;20941;-85
2023/04/09 12:33:09;;;;;;;5.17;4.70;;;;;;;;;;5071718;28;20929;-85
2023/04/09 12:35:36;;;;;;;6.17;5.57;;;;;;;;;;5071911;28;20922;-84
2023/04/09 12:38:11;;;;;;;4.80;4.40;;;;;;;;;;5073028;28;20457;-84
2023/04/09 12:40:37;;;;;;;6.00;5.00;;;;;;;;;;5071944;28;20878;-85
2023/04/09 12:43:03;;;;;;;5.13;4.63;;;;;;;;;;5072845;28;20399;-85
2023/04/09 12:45:30;;;;;;;6.23;5.03;;;;;;;;;;5072868;28;20381;-85
2023/04/09 12:47:56;;;;;;;5.30;4.80;;;;;;;;;;5072025;28;20471;-85
2023/04/09 12:50:23;;;;;;;5.90;5.40;;;;;;;;;;5071910;28;20484;-85
2023/04/09 12:52:49;;;;;;;5.40;4.80;;;;;;;;;;5071711;28;20413;-87
2023/04/09 12:55:15;;;;;;;5.43;4.93;;;;;;;;;;5071917;28;20427;-86
2023/04/09 12:57:43;;;;;;;5.97;5.43;;;;;;;;;;5073395;28;20788;-85
2023/04/09 13:00:09;;;;;;;5.37;4.87;;;;;;;;;;5072998;28;20422;-85
2023/04/09 13:02:35;;;;;;;5.40;4.90;;;;;;;;;;5072707;28;20473;-85
2023/04/09 13:05:02;;;;;;;7.93;7.03;;;;;;;;;;5075713;28;20431;-85
2023/04/09 13:07:28;;;;;;;5.83;5.23;;;;;;;;;;5076614;28;20450;-85
2023/04/09 13:09:54;;;;;;;5.30;4.80;;;;;;;;;;5076429;28;20956;-85
2023/04/09 13:12:20;;;;;;;7.33;6.20;;;;;;;;;;5075424;28;20767;-85
2023/04/09 13:14:47;;;;;;;6.83;6.13;;;;;;;;;;5075406;28;20420;-85
2023/04/09 13:17:13;;;;;;;8.90;7.87;;;;;;;;;;5075044;28;20502;-85
2023/04/09 13:19:40;;;;;;;6.07;5.47;;;;;;;;;;5076438;28;20395;-85
2023/04/09 13:22:07;;;;;;;5.70;5.20;;;;;;;;;;5076730;28;20403;-85
2023/04/09 13:24:34;;;;;;;6.03;5.53;;;;;;;;;;5076316;28;20374;-85
2023/04/09 13:27:01;;;;;;;5.77;5.27;;;;;;;;;;5076783;28;20523;-85
2023/04/09 13:29:28;;;;;;;6.57;4.77;;;;;;;;;;5076235;28;20423;-84
2023/04/09 13:31:56;;;;;;;5.50;5.00;;;;;;;;;;5076902;28;20400;-86
2023/04/09 13:34:22;;;;;;;5.50;4.93;;;;;;;;;;5076258;28;20399;-85
2023/04/09 13:36:48;;;;;;;5.70;5.20;;;;;;;;;;5076034;28;20910;-89
2023/04/09 13:39:14;;;;;;;6.10;5.50;;;;;;;;;;5075963;28;20385;-86
2023/04/09 13:41:40;;;;;;;6.23;5.63;;;;;;;;;;5059594;28;20914;-87
2023/04/09 13:44:06;;;;;;;6.43;5.43;;;;;;;;;;5075453;28;20429;-88
2023/04/09 13:46:32;;;;;;;5.37;4.87;;;;;;;;;;5076898;28;20421;-90
2023/04/09 13:48:58;;;;;;;5.73;5.17;;;;;;;;;;5076523;28;20474;-87
2023/04/09 13:51:25;;;;;;;6.00;5.43;;;;;;;;;;5058897;28;20633;-87
2023/04/09 13:53:51;;;;;;;5.70;5.20;;;;;;;;;;5076341;28;20466;-87
2023/04/09 13:56:17;;;;;;;5.90;4.90;;;;;;;;;;5058803;28;20419;-87
2023/04/09 13:58:43;;;;;;;5.40;4.90;;;;;;;;;;5074605;28;20781;-86
2023/04/09 14:01:09;;;;;;;5.80;5.20;;;;;;;;;;5074819;28;20411;-87
2023/04/09 14:03:37;;;;;;;5.20;4.50;;;;;;;;;;5059881;28;20427;-92
2023/04/09 14:06:03;;;;;;;4.80;4.40;;;;;;;;;;5081763;28;20784;-90
2023/04/09 14:08:30;;;;;;;4.93;4.53;;;;;;;;;;5060906;28;20434;-91
2023/04/09 14:10:56;;;;;;;5.00;4.47;;;;;;;;;;5078011;28;20411;-90
2023/04/09 14:13:22;;;;;;;4.77;4.37;;;;;;;;;;5077717;28;20434;-91
2023/04/09 14:15:48;;;;;;;4.90;4.20;;;;;;;;;;5078059;28;20831;-91
2023/04/09 14:18:14;;;;;;;5.30;4.80;;;;;;;;;;5077544;28;20473;-90
2023/04/09 14:20:40;;;;;;;4.20;3.87;;;;;;;;;;5077036;28;20442;-90
2023/04/09 14:23:06;;;;;;;5.10;4.10;;;;;;;;;;5076626;28;20395;-90
2023/04/09 14:25:32;;;;;;;4.37;4.07;;;;;;;;;;5058850;28;20483;-91
2023/04/09 14:27:58;;;;;;;4.47;4.03;;;;;;;;;;5057486;28;20466;-91